createdAt,value
2022-09-10T00:01:56.591Z,97524.03
2022-09-10T00:04:23.344Z,97525.91
2022-09-10T00:06:50.773Z,97524.34
2022-09-10T00:09:17.506Z,97518.13
2022-09-10T00:11:45.826Z,97524.06
2022-09-10T00:14:16.309Z,97528.84
2022-09-10T00:16:43.695Z,97527.69
2022-09-10T00:19:10.851Z,97514.97
2022-09-10T00:21:37.743Z,97514.56
2022-09-10T00:24:05.279Z,97508.81
2022-09-10T00:26:38.072Z,97512.00
2022-09-10T00:29:06.717Z,97517.34
2022-09-10T00:31:34.476Z,97520.22
2022-09-10T00:34:02.329Z,97517.34
2022-09-10T00:36:33.054Z,97515.31
2022-09-10T00:39:02.441Z,97514.16
2022-09-10T00:41:29.957Z,97514.75
2022-09-10T00:44:26.990Z,97514.59
2022-09-10T00:46:55.646Z,97507.69
2022-09-10T00:49:39.058Z,97513.50
2022-09-10T00:52:07.656Z,97516.97
2022-09-10T00:54:37.215Z,97515.38
2022-09-10T00:57:09.383Z,97513.66
2022-09-10T00:59:36.340Z,97525.09
2022-09-10T01:02:03.925Z,97516.13
2022-09-10T01:04:32.580Z,97523.97
2022-09-10T01:07:01.029Z,97528.69
2022-09-10T01:09:29.122Z,97522.50
2022-09-10T01:12:24.543Z,97521.78
2022-09-10T01:15:26.522Z,97543.59
2022-09-10T01:18:23.134Z,97539.84
2022-09-10T01:21:19.933Z,97547.06
2022-09-10T01:24:29.469Z,97537.13
2022-09-10T01:27:24.217Z,97547.06
2022-09-10T01:29:55.519Z,97544.31
2022-09-10T01:32:40.395Z,97559.31
2022-09-10T01:35:59.364Z,97556.31
2022-09-10T01:38:32.470Z,97554.28
2022-09-10T01:40:59.467Z,97548.66
2022-09-10T01:43:26.461Z,97552.41
2022-09-10T01:46:04.276Z,97547.06
2022-09-10T01:49:08.269Z,97544.72
2022-09-10T01:51:45.201Z,97546.19
2022-09-10T01:55:03.666Z,97544.72
2022-09-10T01:57:52.996Z,97543.16
2022-09-10T02:00:22.263Z,97544.88
2022-09-10T02:02:59.793Z,97542.56
2022-09-10T02:05:29.040Z,97530.44
2022-09-10T02:08:01.920Z,97534.63
2022-09-10T02:10:28.860Z,97534.63
2022-09-10T02:12:55.942Z,97543.00
2022-09-10T02:15:26.430Z,97543.88
2022-09-10T02:17:53.717Z,97541.69
2022-09-10T02:20:22.101Z,97540.28
2022-09-10T02:22:52.412Z,97532.63
2022-09-10T02:25:20.086Z,97538.97
2022-09-10T02:27:46.923Z,97534.19
2022-09-10T02:30:13.690Z,97528.13
2022-09-10T02:32:40.306Z,97525.69
2022-09-10T02:35:07.851Z,97520.91
2022-09-10T02:37:34.452Z,97530.44
2022-09-10T02:40:01.306Z,97530.44
2022-09-10T02:42:27.946Z,97532.31
2022-09-10T02:44:54.519Z,97531.75
2022-09-10T02:47:21.261Z,97535.94
2022-09-10T02:49:47.887Z,97538.69
2022-09-10T02:52:14.460Z,97533.63
2022-09-10T02:54:41.048Z,97529.44
2022-09-10T02:57:07.807Z,97528.13
2022-09-10T02:59:34.605Z,97528.41
2022-09-10T03:02:01.221Z,97524.69
2022-09-10T03:04:27.828Z,97530.88
2022-09-10T03:06:54.932Z,97525.97
2022-09-10T03:09:22.257Z,97527.13
2022-09-10T03:11:49.065Z,97525.38
2022-09-10T03:14:20.234Z,97523.38
2022-09-10T03:16:48.000Z,97518.91
2022-09-10T03:19:15.197Z,97524.69
2022-09-10T03:21:42.433Z,97517.59
2022-09-10T03:24:13.387Z,97522.22
2022-09-10T03:26:41.841Z,97516.00
2022-09-10T03:29:08.433Z,97521.50
2022-09-10T03:31:36.077Z,97515.00
2022-09-10T03:34:03.700Z,97525.09
2022-09-10T03:36:31.412Z,97521.81
2022-09-10T03:39:01.246Z,97530.31
2022-09-10T03:41:28.525Z,97527.28
2022-09-10T03:43:55.733Z,97527.00
2022-09-10T03:46:22.792Z,97533.78
2022-09-10T03:48:54.638Z,97533.19
2022-09-10T03:51:21.693Z,97533.50
2022-09-10T03:53:48.341Z,97525.41
2022-09-10T03:56:17.189Z,97524.09
2022-09-10T03:58:43.763Z,97531.75
2022-09-10T04:01:10.842Z,97533.47
2022-09-10T04:03:37.560Z,97539.69
2022-09-10T04:06:04.263Z,97531.16
2022-09-10T04:08:31.117Z,97534.78
2022-09-10T04:11:02.426Z,97531.16
2022-09-10T04:13:29.257Z,97524.97
2022-09-10T04:15:56.085Z,97524.41
2022-09-10T04:18:22.660Z,97518.91
2022-09-10T04:20:49.416Z,97520.06
2022-09-10T04:23:16.593Z,97519.78
2022-09-10T04:25:43.470Z,97519.03
2022-09-10T04:28:11.378Z,97523.81
2022-09-10T04:30:38.223Z,97527.84
2022-09-10T04:33:05.107Z,97526.97
2022-09-10T04:35:31.734Z,97531.63
2022-09-10T04:37:58.712Z,97532.34
2022-09-10T04:40:27.248Z,97538.97
2022-09-10T04:42:53.832Z,97539.94
2022-09-10T04:45:20.589Z,97540.53
2022-09-10T04:47:47.571Z,97544.28
2022-09-10T04:50:17.362Z,97540.53
2022-09-10T04:52:44.019Z,97549.91
2022-09-10T04:55:11.968Z,97545.00
2022-09-10T04:57:39.063Z,97547.31
2022-09-10T05:00:10.287Z,97554.34
2022-09-10T05:02:37.634Z,97551.63
2022-09-10T05:05:04.726Z,97548.59
2022-09-10T05:07:31.329Z,97550.47
2022-09-10T05:09:58.135Z,97550.47
2022-09-10T05:12:24.844Z,97552.47
2022-09-10T05:14:51.556Z,97559.84
2022-09-10T05:17:18.139Z,97562.88
2022-09-10T05:19:44.738Z,97569.66
2022-09-10T05:22:11.553Z,97567.09
2022-09-10T05:24:38.191Z,97571.09
2022-09-10T05:27:04.805Z,97566.19
2022-09-10T05:29:31.478Z,97573.56
2022-09-10T05:31:58.295Z,97572.69
2022-09-10T05:34:25.121Z,97575.00
2022-09-10T05:36:51.931Z,97574.31
2022-09-10T05:39:18.514Z,97579.94
2022-09-10T05:41:45.107Z,97579.78
2022-09-10T05:44:11.750Z,97577.03
2022-09-10T05:46:38.430Z,97574.16
2022-09-10T05:49:05.005Z,97572.00
2022-09-10T05:51:31.792Z,97577.78
2022-09-10T05:53:58.491Z,97574.63
2022-09-10T05:56:27.603Z,97577.66
2022-09-10T05:58:54.335Z,97577.94
2022-09-10T06:01:20.966Z,97581.41
2022-09-10T06:03:47.755Z,97586.88
2022-09-10T06:06:14.350Z,97573.63
2022-09-10T06:08:40.971Z,97570.44
2022-09-10T06:11:09.242Z,97579.25
2022-09-10T06:13:38.382Z,97574.78
2022-09-10T06:16:05.710Z,97573.47
2022-09-10T06:18:33.164Z,97577.53
2022-09-10T06:21:06.879Z,97585.75
2022-09-10T06:23:34.007Z,97585.91
2022-09-10T06:26:09.672Z,97589.97
2022-09-10T06:28:36.581Z,97587.78
2022-09-10T06:31:04.430Z,97579.69
2022-09-10T06:33:32.270Z,97584.41
2022-09-10T06:36:00.781Z,97584.25
2022-09-10T06:38:33.630Z,97581.31
2022-09-10T06:41:02.104Z,97582.47
2022-09-10T06:43:32.859Z,97578.09
2022-09-10T06:45:59.744Z,97582.97
2022-09-10T06:48:47.536Z,97580.00
2022-09-10T06:51:15.292Z,97577.03
2022-09-10T06:53:43.650Z,97583.75
2022-09-10T06:56:12.005Z,97586.81
2022-09-10T06:58:39.644Z,97580.91
2022-09-10T07:01:14.520Z,97578.38
2022-09-10T07:03:43.471Z,97584.28
2022-09-10T07:06:19.391Z,97585.19
2022-09-10T07:08:46.023Z,97581.69
2022-09-10T07:11:14.342Z,97574.81
2022-09-10T07:13:42.155Z,97580.59
2022-09-10T07:16:09.663Z,97571.53
2022-09-10T07:18:36.529Z,97581.59
2022-09-10T07:21:11.623Z,97579.22
2022-09-10T07:23:41.373Z,97572.00
2022-09-10T07:26:10.374Z,97566.38
2022-09-10T07:28:38.096Z,97567.22
2022-09-10T07:31:11.846Z,97572.84
2022-09-10T07:33:39.154Z,97566.22
2022-09-10T07:36:10.014Z,97567.16
2022-09-10T07:38:37.671Z,97568.69
2022-09-10T07:41:05.114Z,97572.16
2022-09-10T07:43:31.689Z,97565.06
2022-09-10T07:46:01.065Z,97571.00
2022-09-10T07:48:30.683Z,97572.28
2022-09-10T07:51:05.988Z,97570.38
2022-09-10T07:53:32.863Z,97570.72
2022-09-10T07:56:05.849Z,97572.41
2022-09-10T07:58:34.175Z,97573.75
2022-09-10T08:01:00.949Z,97577.88
2022-09-10T08:03:28.329Z,97581.22
2022-09-10T08:05:55.996Z,97579.38
2022-09-10T08:08:22.652Z,97581.16
2022-09-10T08:10:49.723Z,97584.16
2022-09-10T08:13:16.462Z,97578.91
2022-09-10T08:15:44.601Z,97579.75
2022-09-10T08:18:14.753Z,97583.38
2022-09-10T08:20:41.504Z,97584.66
2022-09-10T08:23:08.095Z,97588.91
2022-09-10T08:25:34.896Z,97581.97
2022-09-10T08:28:01.717Z,97592.44
2022-09-10T08:30:28.856Z,97591.69
2022-09-10T08:32:56.202Z,97592.34
2022-09-10T08:35:22.797Z,97595.66
2022-09-10T08:37:49.505Z,97599.00
2022-09-10T08:40:16.554Z,97598.88
2022-09-10T08:42:48.262Z,97595.75
2022-09-10T08:45:28.153Z,97606.16
2022-09-10T08:48:00.843Z,97610.34
2022-09-10T08:50:50.019Z,97609.84
2022-09-10T08:53:28.434Z,97610.97
2022-09-10T08:56:01.983Z,97615.03
2022-09-10T08:58:47.681Z,97623.16
2022-09-10T09:01:26.969Z,97613.78
2022-09-10T09:03:57.328Z,97615.94
2022-09-10T09:06:48.197Z,97615.00
2022-09-10T09:09:15.842Z,97623.44
2022-09-10T09:12:41.071Z,97625.63
2022-09-10T09:15:14.297Z,97628.22
2022-09-10T09:18:11.930Z,97635.84
2022-09-10T09:21:06.990Z,97644.69
2022-09-10T09:24:02.669Z,97640.78
2022-09-10T09:26:35.790Z,97625.31
2022-09-10T09:29:31.243Z,97630.75
2022-09-10T09:32:00.629Z,97625.22
2022-09-10T09:34:41.878Z,97625.94
2022-09-10T09:37:36.404Z,97630.72
2022-09-10T09:40:31.649Z,97632.88
2022-09-10T09:43:56.839Z,97643.69
2022-09-10T09:46:27.074Z,97664.22
2022-09-10T09:48:59.199Z,97679.59
2022-09-10T09:51:30.552Z,97660.69
2022-09-10T09:54:39.379Z,97654.13
2022-09-10T09:56:52.142Z,97653.41
2022-09-10T09:59:34.862Z,97644.94
2022-09-10T10:02:14.468Z,97646.25
2022-09-10T10:05:20.580Z,97655.88
2022-09-10T10:07:48.573Z,97647.94
2022-09-10T10:10:25.520Z,97645.50
2022-09-10T10:12:54.194Z,97645.69
2022-09-10T10:15:42.455Z,97653.38
2022-09-10T10:18:29.390Z,97651.72
2022-09-10T10:21:15.874Z,97648.16
2022-09-10T10:23:42.859Z,97646.47
2022-09-10T10:26:30.706Z,97629.69
2022-09-10T10:29:19.595Z,97631.97
2022-09-10T10:31:49.436Z,97621.38
2022-09-10T10:34:33.479Z,97624.75
2022-09-10T10:37:07.417Z,97617.69
2022-09-10T10:40:15.229Z,97614.81
2022-09-10T10:43:00.463Z,97618.97
2022-09-10T10:45:59.457Z,97614.41
2022-09-10T10:49:03.576Z,97615.88
2022-09-10T10:52:06.007Z,97621.78
2022-09-10T10:54:32.523Z,97622.25
2022-09-10T10:57:33.345Z,97622.13
2022-09-10T11:00:07.405Z,97622.22
2022-09-10T11:03:05.888Z,97616.44
2022-09-10T11:08:34.046Z,97605.78
2022-09-10T11:11:04.902Z,97611.69
2022-09-10T11:13:44.482Z,97604.94
2022-09-10T11:16:24.081Z,97603.53
2022-09-10T11:19:18.258Z,97597.09
2022-09-10T11:21:53.434Z,97607.31
2022-09-10T11:24:33.688Z,97597.22
2022-09-10T11:27:09.119Z,97599.69
2022-09-10T11:29:56.040Z,97605.53
2022-09-10T11:32:36.503Z,97592.78
2022-09-10T11:35:41.042Z,97585.97
2022-09-10T11:38:20.700Z,97587.94
2022-09-10T11:40:56.280Z,97576.00
2022-09-10T11:43:33.287Z,97578.25
2022-09-10T11:46:04.656Z,97575.09
2022-09-10T11:48:41.573Z,97565.59
2022-09-10T11:51:19.433Z,97568.41
2022-09-10T11:53:46.345Z,97558.22
2022-09-10T11:56:59.635Z,97553.09
2022-09-10T12:00:18.774Z,97560.25
2022-09-10T12:03:28.443Z,97571.44
2022-09-10T12:06:33.694Z,97556.56
2022-09-10T12:09:34.875Z,97548.03
2022-09-10T12:12:22.310Z,97543.31
2022-09-10T12:14:49.046Z,97542.69
2022-09-10T12:17:31.626Z,97537.53
2022-09-10T12:19:59.753Z,97541.50
2022-09-10T12:22:39.705Z,97528.50
2022-09-10T12:25:22.658Z,97535.78
2022-09-10T12:28:00.173Z,97535.72
2022-09-10T12:30:31.502Z,97534.88
2022-09-10T12:33:01.296Z,97530.69
2022-09-10T12:35:48.189Z,97524.00
2022-09-10T12:38:47.034Z,97526.88
2022-09-10T12:41:36.091Z,97524.44
2022-09-10T12:44:57.254Z,97527.13
2022-09-10T12:47:31.037Z,97520.47
2022-09-10T12:50:05.383Z,97520.75
2022-09-10T12:53:10.132Z,97517.56
2022-09-10T12:56:02.301Z,97515.19
2022-09-10T12:58:42.708Z,97511.88
2022-09-10T13:01:46.363Z,97516.25
2022-09-10T13:04:29.882Z,97514.84
2022-09-10T13:07:21.052Z,97518.53
2022-09-10T13:09:58.298Z,97512.56
2022-09-10T13:12:26.371Z,97516.47
2022-09-10T13:14:57.513Z,97511.50
2022-09-10T13:17:39.776Z,97517.13
2022-09-10T13:20:32.737Z,97507.72
2022-09-10T13:23:23.623Z,97515.34
2022-09-10T13:25:51.968Z,97509.09
2022-09-10T13:29:01.963Z,97515.56
2022-09-10T13:31:38.812Z,97511.38
2022-09-10T13:35:05.601Z,97524.41
2022-09-10T13:38:13.794Z,97520.59
2022-09-10T13:41:21.347Z,97520.97
2022-09-10T13:44:12.725Z,97523.34
2022-09-10T13:46:46.940Z,97531.41
2022-09-10T13:49:29.210Z,97538.53
2022-09-10T13:51:58.510Z,97536.81
2022-09-10T13:54:40.161Z,97526.88
2022-09-10T13:57:44.726Z,97524.22
2022-09-10T14:00:27.514Z,97528.09
2022-09-10T14:02:59.773Z,97530.72
2022-09-10T14:05:54.475Z,97534.50
2022-09-10T14:08:26.682Z,97527.53
2022-09-10T14:11:18.537Z,97529.41
2022-09-10T14:13:59.397Z,97519.53
2022-09-10T14:16:54.149Z,97519.91
2022-09-10T14:19:49.260Z,97535.91
2022-09-10T14:22:22.178Z,97534.22
2022-09-10T14:24:57.384Z,97525.31
2022-09-10T14:27:34.933Z,97527.75
2022-09-10T14:30:30.866Z,97519.38
2022-09-10T14:33:33.796Z,97520.88
2022-09-10T14:36:16.248Z,97528.34
2022-09-10T14:38:45.315Z,97536.25
2022-09-10T14:41:24.659Z,97552.03
2022-09-10T14:44:29.622Z,97553.16
2022-09-10T14:47:12.776Z,97551.34
2022-09-10T14:49:41.456Z,97551.75
2022-09-10T14:52:11.191Z,97561.28
2022-09-10T14:54:37.753Z,97547.72
2022-09-10T14:57:11.042Z,97549.50
2022-09-10T14:59:39.926Z,97554.44
2022-09-10T15:02:19.702Z,97547.28
2022-09-10T15:04:47.847Z,97550.53
2022-09-10T15:07:14.641Z,97549.91
2022-09-10T15:09:41.422Z,97553.16
2022-09-10T15:12:31.058Z,97554.22
2022-09-10T15:14:58.481Z,97559.38
2022-09-10T15:17:25.904Z,97554.59
2022-09-10T15:19:53.514Z,97559.50
2022-09-10T15:22:23.426Z,97555.34
2022-09-10T15:25:09.046Z,97553.41
2022-09-10T15:27:37.373Z,97548.75
2022-09-10T15:30:05.355Z,97547.44
2022-09-10T15:32:31.990Z,97546.84
2022-09-10T15:34:59.201Z,97548.88
2022-09-10T15:37:25.891Z,97547.06
2022-09-10T15:39:53.130Z,97543.22
2022-09-10T15:42:19.910Z,97550.28
2022-09-10T15:44:46.552Z,97545.38
2022-09-10T15:47:13.230Z,97544.28
2022-09-10T15:49:39.808Z,97547.53
2022-09-10T15:52:06.409Z,97541.31
2022-09-10T15:54:33.946Z,97544.91
2022-09-10T15:57:01.138Z,97548.16
2022-09-10T15:59:28.464Z,97549.47
2022-09-10T16:01:55.054Z,97555.09
2022-09-10T16:04:21.918Z,97552.34
2022-09-10T16:06:48.554Z,97547.28
2022-09-10T16:09:15.349Z,97551.13
2022-09-10T16:11:43.508Z,97552.69
2022-09-10T16:14:13.605Z,97548.50
2022-09-10T16:16:40.992Z,97541.78
2022-09-10T16:19:07.861Z,97546.31
2022-09-10T16:21:36.889Z,97546.66
2022-09-10T16:24:04.613Z,97536.56
2022-09-10T16:26:37.500Z,97539.34
2022-09-10T16:29:07.262Z,97539.44
2022-09-10T16:31:36.438Z,97533.69
2022-09-10T16:34:05.525Z,97523.63
2022-09-10T16:36:34.744Z,97528.91
2022-09-10T16:39:04.893Z,97528.19
2022-09-10T16:41:33.069Z,97528.47
2022-09-10T16:44:00.551Z,97530.00
2022-09-10T16:46:28.067Z,97528.84
2022-09-10T16:48:55.843Z,97532.66
2022-09-10T16:51:25.119Z,97531.72
2022-09-10T16:54:03.717Z,97530.91
2022-09-10T16:56:39.944Z,97527.16
2022-09-10T16:59:08.204Z,97526.09
2022-09-10T17:01:35.681Z,97520.22
2022-09-10T17:04:03.504Z,97521.28
2022-09-10T17:06:31.765Z,97511.59
2022-09-10T17:09:00.587Z,97521.28
2022-09-10T17:11:33.468Z,97521.28
2022-09-10T17:14:03.293Z,97520.56
2022-09-10T17:16:40.495Z,97522.47
2022-09-10T17:19:14.542Z,97521.44
2022-09-10T17:21:45.102Z,97520.00
2022-09-10T17:24:13.096Z,97527.53
2022-09-10T17:26:41.299Z,97529.78
2022-09-10T17:29:14.657Z,97531.13
2022-09-10T17:31:42.170Z,97540.47
2022-09-10T17:34:14.306Z,97545.38
2022-09-10T17:36:45.271Z,97550.91
2022-09-10T17:39:12.837Z,97543.94
2022-09-10T17:41:40.348Z,97556.53
2022-09-10T17:44:08.030Z,97558.91
2022-09-10T17:46:37.571Z,97552.78
2022-09-10T17:49:04.596Z,97552.53
2022-09-10T17:51:33.224Z,97553.94
2022-09-10T17:53:59.813Z,97555.03
2022-09-10T17:56:27.301Z,97553.94
2022-09-10T17:59:02.648Z,97551.03
2022-09-10T18:01:36.422Z,97549.50
2022-09-10T18:04:04.237Z,97556.31
2022-09-10T18:06:32.282Z,97550.09
2022-09-10T18:09:00.471Z,97556.19
2022-09-10T18:11:29.665Z,97552.72
2022-09-10T18:13:58.165Z,97551.03
2022-09-10T18:16:27.794Z,97554.25
2022-09-10T18:19:13.617Z,97551.97
2022-09-10T18:21:42.334Z,97557.59
2022-09-10T18:24:19.382Z,97559.16
2022-09-10T18:26:48.047Z,97554.50
2022-09-10T18:29:20.195Z,97567.44
2022-09-10T18:31:49.618Z,97568.16
2022-09-10T18:34:22.980Z,97574.38
2022-09-10T18:36:55.749Z,97576.63
2022-09-10T18:39:22.655Z,97569.91
2022-09-10T18:41:49.233Z,97578.53
2022-09-10T18:44:20.805Z,97575.88
2022-09-10T18:46:48.885Z,97584.03
2022-09-10T18:49:21.002Z,97580.69
2022-09-10T18:51:48.219Z,97578.19
2022-09-10T18:54:16.702Z,97571.94
2022-09-10T18:56:45.002Z,97584.44
2022-09-10T18:59:15.165Z,97592.56
2022-09-10T19:01:45.758Z,97591.38
2022-09-10T19:04:15.201Z,97588.16
2022-09-10T19:06:46.907Z,97587.91
2022-09-10T19:09:23.929Z,97585.00
2022-09-10T19:11:52.926Z,97588.38
2022-09-10T19:14:26.392Z,97583.31
2022-09-10T19:16:54.860Z,97576.63
2022-09-10T19:19:27.558Z,97572.66
2022-09-10T19:21:59.338Z,97582.63
2022-09-10T19:24:44.077Z,97582.75
2022-09-10T19:27:13.683Z,97573.78
2022-09-10T19:29:43.034Z,97589.56
2022-09-10T19:32:11.268Z,97585.00
2022-09-10T19:34:39.414Z,97591.38
2022-09-10T19:37:07.096Z,97595.56
2022-09-10T19:39:33.989Z,97589.78
2022-09-10T19:42:00.856Z,97597.56
2022-09-10T19:44:28.444Z,97601.28
2022-09-10T19:46:55.307Z,97601.59
2022-09-10T19:49:22.300Z,97603.06
2022-09-10T19:51:48.946Z,97602.66
2022-09-10T19:54:16.278Z,97609.34
2022-09-10T19:56:43.794Z,97610.53
2022-09-10T19:59:10.720Z,97610.94
2022-09-10T20:01:42.145Z,97606.34
2022-09-10T20:04:11.335Z,97606.94
2022-09-10T20:06:38.551Z,97604.44
2022-09-10T20:09:06.761Z,97612.72
2022-09-10T20:11:35.308Z,97604.56
2022-09-10T20:14:07.833Z,97604.56
2022-09-10T20:16:39.285Z,97604.56
2022-09-10T20:19:07.183Z,97603.13
2022-09-10T20:21:34.559Z,97609.50
2022-09-10T20:24:01.244Z,97609.34
2022-09-10T20:26:29.081Z,97600.50
2022-09-10T20:29:01.164Z,97603.84
2022-09-10T20:31:29.907Z,97598.09
2022-09-10T20:34:00.917Z,97597.81
2022-09-10T20:36:28.582Z,97598.53
2022-09-10T20:38:56.073Z,97597.81
2022-09-10T20:41:23.984Z,97597.22
2022-09-10T20:43:51.912Z,97603.59
2022-09-10T20:46:20.491Z,97605.47
2022-09-10T20:48:49.229Z,97595.41
2022-09-10T20:51:20.585Z,97598.03
2022-09-10T20:53:48.225Z,97591.09
2022-09-10T20:56:18.349Z,97589.63
2022-09-10T20:58:46.124Z,97593.25
2022-09-10T21:01:13.930Z,97589.88
2022-09-10T21:03:41.083Z,97591.59
2022-09-10T21:06:09.192Z,97592.31
2022-09-10T21:08:37.837Z,97593.03
2022-09-10T21:11:13.169Z,97590.28
2022-09-10T21:13:59.551Z,97588.00
2022-09-10T21:16:34.631Z,97594.94
2022-09-10T21:19:11.156Z,97594.81
2022-09-10T21:21:41.999Z,97591.47
2022-09-10T21:24:17.155Z,97591.47
2022-09-10T21:26:44.250Z,97599.41
2022-09-10T21:29:14.344Z,97608.63
2022-09-10T21:31:41.458Z,97595.06
2022-09-10T21:34:08.807Z,97601.28
2022-09-10T21:36:37.357Z,97601.44
2022-09-10T21:39:11.476Z,97600.38
2022-09-10T21:41:40.979Z,97599.91
2022-09-10T21:44:14.257Z,97598.34
2022-09-10T21:46:44.658Z,97601.94
2022-09-10T21:49:11.869Z,97600.50
2022-09-10T21:51:38.673Z,97591.78
2022-09-10T21:54:05.906Z,97591.66
2022-09-10T21:56:32.772Z,97592.38
2022-09-10T21:59:00.562Z,97591.19
2022-09-10T22:01:30.529Z,97583.91
2022-09-10T22:04:00.496Z,97582.94
2022-09-10T22:06:30.217Z,97586.41
2022-09-10T22:08:59.167Z,97585.94
2022-09-10T22:11:46.860Z,97585.94
2022-09-10T22:14:16.129Z,97584.50
2022-09-10T22:16:42.958Z,97591.44
2022-09-10T22:19:14.133Z,97596.84
2022-09-10T22:21:41.214Z,97589.03
2022-09-10T22:24:10.313Z,97589.16
2022-09-10T22:26:42.409Z,97592.38
2022-09-10T22:29:09.549Z,97595.00
2022-09-10T22:31:36.567Z,97589.44
2022-09-10T22:34:06.624Z,97614.16
2022-09-10T22:36:36.202Z,97604.47
2022-09-10T22:39:12.930Z,97610.03
2022-09-10T22:41:40.564Z,97611.97
2022-09-10T22:44:07.857Z,97606.50
2022-09-10T22:46:35.799Z,97603.78
2022-09-10T22:49:03.165Z,97605.41
2022-09-10T22:51:34.192Z,97607.81
2022-09-10T22:54:01.153Z,97598.56
2022-09-10T22:56:28.001Z,97600.25
2022-09-10T22:58:59.690Z,97604.88
2022-09-10T23:01:29.378Z,97602.41
2022-09-10T23:04:00.689Z,97604.59
2022-09-10T23:06:30.191Z,97595.34
2022-09-10T23:09:02.380Z,97604.16
2022-09-10T23:11:30.925Z,97598.94
2022-09-10T23:14:03.128Z,97605.41
2022-09-10T23:16:38.045Z,97599.63
2022-09-10T23:19:07.009Z,97606.53
2022-09-10T23:21:35.079Z,97609.72
2022-09-10T23:24:04.139Z,97605.97
2022-09-10T23:26:31.191Z,97608.84
2022-09-10T23:29:00.388Z,97599.88
2022-09-10T23:31:29.270Z,97599.28
2022-09-10T23:33:59.162Z,97602.56
2022-09-10T23:36:31.381Z,97600.00
2022-09-10T23:39:02.869Z,97599.88
2022-09-10T23:41:32.747Z,97597.13
2022-09-10T23:43:59.254Z,97590.31
2022-09-10T23:46:26.039Z,97602.91
2022-09-10T23:48:52.884Z,97598.66
2022-09-10T23:51:20.854Z,97601.41
2022-09-10T23:53:48.584Z,97605.03
2022-09-10T23:56:17.242Z,97598.81
2022-09-10T23:58:44.511Z,97602.88
